createdAt,value
2017-12-15T00:00:10.631Z,1.12
2017-12-15T00:02:38.055Z,1.60
2017-12-15T00:05:05.486Z,0.90
2017-12-15T00:07:32.915Z,0.70
2017-12-15T00:10:00.389Z,0.60
2017-12-15T00:12:27.832Z,0.37
2017-12-15T00:14:55.325Z,0.50
2017-12-15T00:17:22.761Z,0.50
2017-12-15T00:19:50.961Z,0.55
2017-12-15T00:22:18.430Z,0.50
2017-12-15T00:24:45.852Z,0.62
2017-12-15T00:27:13.297Z,0.57
2017-12-15T00:29:40.756Z,0.30
2017-12-15T00:32:08.212Z,0.52
2017-12-15T00:34:35.740Z,1.00
2017-12-15T00:37:03.279Z,0.50
2017-12-15T00:39:30.717Z,0.60
2017-12-15T00:41:58.276Z,0.60
2017-12-15T00:44:25.704Z,0.47
2017-12-15T00:46:53.230Z,0.80
2017-12-15T00:49:20.657Z,0.80
2017-12-15T00:51:48.088Z,0.90
2017-12-15T00:54:15.508Z,1.55
2017-12-15T00:56:43.757Z,1.40
2017-12-15T00:59:11.180Z,1.12
2017-12-15T01:01:38.677Z,1.08
2017-12-15T01:04:06.180Z,1.50
2017-12-15T01:06:33.620Z,1.35
2017-12-15T01:09:01.059Z,1.35
2017-12-15T01:11:28.476Z,0.95
2017-12-15T01:13:55.953Z,1.10
2017-12-15T01:16:23.424Z,0.80
2017-12-15T01:18:51.629Z,0.70
2017-12-15T01:21:19.193Z,0.60
2017-12-15T01:23:46.644Z,0.95
2017-12-15T01:26:14.908Z,0.70
2017-12-15T01:28:42.342Z,0.47
2017-12-15T01:31:09.809Z,0.50
2017-12-15T01:33:37.327Z,0.50
2017-12-15T01:36:04.768Z,0.50
2017-12-15T01:38:32.219Z,0.50
2017-12-15T01:40:59.643Z,0.40
2017-12-15T01:43:27.086Z,0.40
2017-12-15T01:45:54.517Z,0.40
2017-12-15T01:48:21.949Z,0.50
2017-12-15T01:50:49.396Z,0.50
2017-12-15T01:53:16.872Z,0.55
2017-12-15T01:55:44.313Z,0.50
2017-12-15T01:58:11.757Z,0.40
2017-12-15T02:00:39.188Z,0.40
2017-12-15T02:03:06.631Z,0.40
2017-12-15T02:05:34.056Z,0.50
2017-12-15T02:08:01.498Z,0.40
2017-12-15T02:10:28.980Z,0.60
2017-12-15T02:12:56.404Z,0.40
2017-12-15T02:15:24.609Z,0.40
2017-12-15T02:17:52.804Z,0.40
2017-12-15T02:20:20.232Z,0.40
2017-12-15T02:22:47.749Z,0.30
2017-12-15T02:25:15.997Z,0.47
2017-12-15T02:27:43.525Z,0.40
2017-12-15T02:30:10.969Z,0.40
2017-12-15T02:32:38.404Z,0.40
2017-12-15T02:35:05.837Z,0.47
2017-12-15T02:37:33.276Z,0.50
2017-12-15T02:40:00.705Z,0.60
2017-12-15T02:42:28.281Z,0.43
2017-12-15T02:44:55.708Z,0.40
2017-12-15T02:47:23.173Z,0.40
2017-12-15T02:49:50.613Z,0.50
2017-12-15T02:52:18.045Z,0.40
2017-12-15T02:54:45.496Z,1.98
2017-12-15T02:57:12.914Z,1.00
2017-12-15T02:59:40.458Z,0.50
2017-12-15T03:02:07.872Z,0.40
2017-12-15T03:04:35.445Z,0.50
2017-12-15T03:07:02.943Z,0.60
2017-12-15T03:09:31.136Z,0.50
2017-12-15T03:11:58.568Z,0.40
2017-12-15T03:14:25.992Z,0.50
2017-12-15T03:16:54.233Z,0.40
2017-12-15T03:19:22.096Z,0.40
2017-12-15T03:21:50.297Z,0.45
2017-12-15T03:24:17.748Z,0.40
2017-12-15T03:26:45.223Z,0.52
2017-12-15T03:29:12.667Z,0.40
2017-12-15T03:31:40.107Z,0.50
2017-12-15T03:34:07.533Z,0.40
2017-12-15T03:36:34.991Z,0.50
2017-12-15T03:39:03.931Z,0.60
2017-12-15T03:41:31.368Z,0.60
2017-12-15T03:43:58.797Z,0.60
2017-12-15T03:46:26.232Z,0.50
2017-12-15T03:48:53.669Z,0.52
2017-12-15T03:51:21.864Z,0.80
2017-12-15T03:53:49.293Z,0.62
2017-12-15T03:56:16.728Z,0.50
2017-12-15T03:58:44.924Z,0.77
2017-12-15T04:01:12.392Z,0.60
2017-12-15T04:03:39.820Z,0.60
2017-12-15T04:06:07.280Z,0.60
2017-12-15T04:08:34.712Z,0.40
2017-12-15T04:11:02.258Z,0.60
2017-12-15T04:13:29.697Z,0.40
2017-12-15T04:15:57.248Z,0.43
2017-12-15T04:18:24.680Z,0.80
2017-12-15T04:20:52.127Z,0.50
2017-12-15T04:23:19.580Z,0.50
2017-12-15T04:25:47.120Z,0.60
2017-12-15T04:28:16.096Z,0.70
2017-12-15T04:30:43.649Z,0.50
2017-12-15T04:33:11.084Z,0.55
2017-12-15T04:35:38.512Z,0.50
2017-12-15T04:38:05.968Z,0.60
2017-12-15T04:40:33.424Z,0.60
2017-12-15T04:43:00.962Z,0.60
2017-12-15T04:45:28.428Z,0.80
2017-12-15T04:47:55.939Z,0.50
2017-12-15T04:50:23.364Z,0.52
2017-12-15T04:52:50.832Z,0.40
2017-12-15T04:55:18.274Z,0.50
2017-12-15T04:57:45.720Z,0.60
2017-12-15T05:00:13.424Z,1.10
2017-12-15T05:02:41.004Z,0.90
2017-12-15T05:05:08.512Z,0.62
2017-12-15T05:07:35.996Z,0.88
2017-12-15T05:10:03.436Z,0.90
2017-12-15T05:12:30.860Z,0.40
2017-12-15T05:14:58.298Z,0.60
2017-12-15T05:17:25.912Z,0.80
2017-12-15T05:19:53.368Z,0.60
2017-12-15T05:22:20.863Z,0.95
2017-12-15T05:24:48.400Z,0.70
2017-12-15T05:27:17.382Z,0.75
2017-12-15T05:29:44.820Z,0.90
2017-12-15T05:32:12.244Z,0.80
2017-12-15T05:34:39.684Z,0.90
2017-12-15T05:37:07.118Z,1.00
2017-12-15T05:39:34.597Z,0.93
2017-12-15T05:42:02.020Z,0.68
2017-12-15T05:44:29.516Z,1.20
2017-12-15T05:46:57.749Z,0.70
2017-12-15T05:49:25.180Z,0.52
2017-12-15T05:51:52.619Z,0.82
2017-12-15T05:54:20.056Z,0.90
2017-12-15T05:56:47.516Z,0.90
2017-12-15T05:59:14.948Z,1.17
2017-12-15T06:01:42.395Z,0.90
2017-12-15T06:04:09.832Z,0.60
2017-12-15T06:06:37.376Z,0.70
2017-12-15T06:09:04.825Z,1.00
2017-12-15T06:11:32.256Z,0.68
2017-12-15T06:13:59.804Z,0.80
2017-12-15T06:16:27.233Z,0.80
2017-12-15T06:18:54.668Z,0.80
2017-12-15T06:21:22.101Z,1.00
2017-12-15T06:23:49.692Z,1.10
2017-12-15T06:26:17.144Z,0.65
2017-12-15T06:28:44.564Z,0.88
2017-12-15T06:31:11.996Z,1.05
2017-12-15T06:33:39.419Z,1.35
2017-12-15T06:36:06.896Z,1.10
2017-12-15T06:38:34.327Z,0.98
2017-12-15T06:41:02.271Z,0.80
2017-12-15T06:43:29.685Z,0.88
2017-12-15T06:45:57.111Z,0.75
2017-12-15T06:48:24.564Z,0.43
2017-12-15T06:50:52.009Z,0.88
2017-12-15T06:53:19.538Z,0.75
2017-12-15T06:55:46.981Z,1.20
2017-12-15T06:58:15.220Z,0.80
2017-12-15T07:00:42.654Z,0.70
2017-12-15T07:03:10.080Z,1.00
2017-12-15T07:05:37.514Z,0.80
2017-12-15T07:08:05.026Z,0.70
2017-12-15T07:10:33.225Z,0.75
2017-12-15T07:13:00.656Z,0.60
2017-12-15T07:15:28.124Z,0.80
2017-12-15T07:17:55.565Z,0.70
2017-12-15T07:20:23.009Z,0.75
2017-12-15T07:22:50.462Z,0.77
2017-12-15T07:25:18.078Z,1.00
2017-12-15T07:27:45.508Z,1.17
2017-12-15T07:30:12.937Z,0.70
2017-12-15T07:32:40.431Z,1.10
2017-12-15T07:35:07.895Z,0.90
2017-12-15T07:37:35.321Z,1.08
2017-12-15T07:40:02.752Z,1.25
2017-12-15T07:42:30.189Z,0.75
2017-12-15T07:44:57.618Z,0.70
2017-12-15T07:47:25.057Z,1.02
2017-12-15T07:49:52.493Z,1.05
2017-12-15T07:52:19.976Z,1.10
2017-12-15T07:54:47.520Z,1.08
2017-12-15T07:57:14.960Z,1.33
2017-12-15T07:59:42.388Z,1.15
2017-12-15T08:02:09.819Z,1.55
2017-12-15T08:04:37.248Z,1.23
2017-12-15T08:07:04.740Z,1.30
2017-12-15T08:09:32.164Z,0.90
2017-12-15T08:11:59.616Z,0.85
2017-12-15T08:14:27.059Z,1.10
2017-12-15T08:16:54.494Z,1.30
2017-12-15T08:19:22.401Z,1.30
2017-12-15T08:21:49.825Z,1.70
2017-12-15T08:24:18.028Z,2.12
2017-12-15T08:26:45.477Z,1.30
2017-12-15T08:29:12.892Z,2.00
2017-12-15T08:31:40.393Z,1.75
2017-12-15T08:34:07.822Z,1.10
2017-12-15T08:36:35.272Z,1.20
2017-12-15T08:39:02.696Z,1.20
2017-12-15T08:41:30.129Z,1.30
2017-12-15T08:43:57.565Z,1.20
2017-12-15T08:46:24.993Z,1.23
2017-12-15T08:48:52.423Z,1.02
2017-12-15T08:51:19.849Z,1.50
2017-12-15T08:53:48.047Z,1.55
2017-12-15T08:56:15.481Z,1.10
2017-12-15T08:58:42.993Z,1.25
2017-12-15T09:01:11.198Z,0.70
2017-12-15T09:03:38.628Z,1.30
2017-12-15T09:06:06.121Z,1.00
2017-12-15T09:08:33.556Z,0.80
2017-12-15T09:11:01.050Z,0.88
2017-12-15T09:13:28.500Z,0.80
2017-12-15T09:15:55.935Z,0.98
2017-12-15T09:18:23.364Z,1.00
2017-12-15T09:20:51.625Z,1.60
2017-12-15T09:23:19.069Z,0.90
2017-12-15T09:25:47.264Z,1.42
2017-12-15T09:28:14.728Z,1.20
2017-12-15T09:30:42.166Z,1.48
2017-12-15T09:33:09.601Z,1.30
2017-12-15T09:35:37.036Z,1.20
2017-12-15T09:38:04.463Z,1.10
2017-12-15T09:40:32.800Z,1.15
2017-12-15T09:43:01.034Z,0.80
2017-12-15T09:45:28.465Z,1.12
2017-12-15T09:47:55.922Z,1.17
2017-12-15T09:50:23.365Z,1.20
2017-12-15T09:52:50.873Z,2.25
2017-12-15T09:55:18.352Z,1.27
2017-12-15T09:57:46.550Z,0.70
2017-12-15T10:00:13.985Z,1.40
2017-12-15T10:02:41.489Z,1.10
2017-12-15T10:05:08.925Z,1.20
2017-12-15T10:07:36.372Z,1.08
2017-12-15T10:10:03.800Z,1.67
2017-12-15T10:12:31.233Z,1.30
2017-12-15T10:14:59.086Z,1.95
2017-12-15T10:17:26.512Z,1.27
2017-12-15T10:19:53.957Z,1.37
2017-12-15T10:22:21.445Z,0.93
2017-12-15T10:24:48.878Z,1.12
2017-12-15T10:27:16.314Z,1.25
2017-12-15T10:29:43.788Z,0.90
2017-12-15T10:32:11.220Z,1.15
2017-12-15T10:34:38.655Z,1.30
2017-12-15T10:37:06.655Z,1.08
2017-12-15T10:39:34.096Z,1.10
2017-12-15T10:42:01.569Z,1.10
2017-12-15T10:44:29.019Z,1.40
2017-12-15T10:46:56.458Z,1.10
2017-12-15T10:49:23.989Z,1.05
2017-12-15T10:51:51.434Z,1.05
2017-12-15T10:54:18.881Z,0.90
2017-12-15T10:56:46.368Z,1.73
2017-12-15T10:59:13.789Z,2.00
2017-12-15T11:01:41.461Z,1.50
2017-12-15T11:04:08.886Z,1.87
2017-12-15T11:06:36.326Z,1.20
2017-12-15T11:09:03.890Z,1.10
2017-12-15T11:11:31.332Z,1.48
2017-12-15T11:13:58.760Z,1.10
2017-12-15T11:16:26.255Z,0.75
2017-12-15T11:18:53.688Z,1.10
2017-12-15T11:21:21.131Z,0.95
2017-12-15T11:23:48.569Z,1.35
2017-12-15T11:26:16.894Z,1.05
2017-12-15T11:28:44.328Z,0.95
2017-12-15T11:31:11.790Z,0.95
2017-12-15T11:33:39.328Z,0.90
2017-12-15T11:36:06.785Z,1.10
2017-12-15T11:38:34.221Z,0.90
2017-12-15T11:41:02.416Z,0.90
2017-12-15T11:43:29.856Z,1.10
2017-12-15T11:45:57.288Z,0.73
2017-12-15T11:48:25.502Z,1.30
2017-12-15T11:50:52.929Z,1.77
2017-12-15T11:53:20.367Z,1.00
2017-12-15T11:55:48.192Z,0.77
2017-12-15T11:58:15.789Z,0.80
2017-12-15T12:00:43.241Z,0.90
2017-12-15T12:03:10.791Z,0.90
2017-12-15T12:05:38.216Z,1.75
2017-12-15T12:08:05.652Z,0.90
2017-12-15T12:10:33.081Z,1.00
2017-12-15T12:13:00.584Z,1.37
2017-12-15T12:15:28.795Z,1.00
2017-12-15T12:17:56.253Z,1.20
2017-12-15T12:20:24.484Z,0.98
2017-12-15T12:22:51.912Z,1.05
2017-12-15T12:25:19.396Z,0.70
2017-12-15T12:27:46.830Z,1.80
2017-12-15T12:30:14.272Z,5.45
2017-12-15T12:32:41.732Z,350.45
2017-12-15T12:35:09.192Z,262.98
2017-12-15T12:37:36.664Z,62.50
2017-12-15T12:40:04.149Z,274.33
2017-12-15T12:42:31.715Z,174.07
2017-12-15T12:44:59.381Z,50.78
2017-12-15T12:47:27.588Z,91.30
2017-12-15T12:49:55.039Z,26.58
2017-12-15T12:52:22.508Z,303.75
2017-12-15T12:54:49.955Z,87.75
2017-12-15T12:57:17.393Z,30.58
2017-12-15T12:59:44.829Z,11.12
2017-12-15T13:02:12.347Z,51.35
2017-12-15T13:04:39.792Z,150.40
2017-12-15T13:07:07.472Z,161.73
2017-12-15T13:09:34.911Z,44.85
2017-12-15T13:12:02.341Z,48.97
2017-12-15T13:14:29.783Z,7.90
2017-12-15T13:16:57.217Z,42.50
2017-12-15T13:19:24.776Z,244.52
2017-12-15T13:21:52.220Z,120.50
2017-12-15T13:24:19.676Z,1.55
2017-12-15T13:26:47.158Z,3.72
2017-12-15T13:29:14.658Z,90.75
2017-12-15T13:31:42.097Z,31.55
2017-12-15T13:34:09.524Z,17.80
2017-12-15T13:36:36.969Z,17.67
2017-12-15T13:39:04.400Z,46.25
2017-12-15T13:41:31.852Z,161.57
2017-12-15T13:43:59.300Z,127.47
2017-12-15T13:46:26.757Z,260.65
2017-12-15T13:48:54.196Z,580.53
2017-12-15T13:51:21.745Z,584.65
2017-12-15T13:53:49.397Z,83.30
2017-12-15T13:56:16.880Z,84.05
2017-12-15T13:58:44.310Z,75.85
2017-12-15T14:01:11.830Z,91.22
2017-12-15T14:03:39.270Z,442.35
2017-12-15T14:06:06.773Z,688.85
2017-12-15T14:08:34.230Z,754.67
2017-12-15T14:11:01.704Z,382.05
2017-12-15T14:13:29.918Z,285.10
2017-12-15T14:15:57.359Z,364.33
2017-12-15T14:18:24.822Z,18.35
2017-12-15T14:20:52.235Z,1.30
2017-12-15T14:23:19.691Z,1.12
2017-12-15T14:25:47.166Z,2.85
2017-12-15T14:28:14.605Z,12.37
2017-12-15T14:30:42.108Z,538.58
2017-12-15T14:33:09.547Z,169.35
2017-12-15T14:35:36.991Z,513.83
2017-12-15T14:38:04.492Z,163.62
2017-12-15T14:40:31.932Z,284.92
2017-12-15T14:42:59.387Z,92.25
2017-12-15T14:45:27.632Z,314.20
2017-12-15T14:47:55.085Z,564.00
2017-12-15T14:50:23.295Z,192.05
2017-12-15T14:52:50.796Z,884.45
2017-12-15T14:55:19.155Z,840.33
2017-12-15T14:57:47.395Z,168.00
2017-12-15T15:00:14.840Z,138.27
2017-12-15T15:02:42.301Z,679.85
2017-12-15T15:05:10.549Z,790.33
2017-12-15T15:07:37.998Z,42.70
2017-12-15T15:10:05.535Z,55.53
2017-12-15T15:12:32.972Z,246.95
2017-12-15T15:15:00.412Z,222.43
2017-12-15T15:17:27.969Z,71.18
2017-12-15T15:19:55.511Z,29.15
2017-12-15T15:22:22.992Z,60.65
2017-12-15T15:24:50.439Z,38.55
2017-12-15T15:27:17.945Z,33.05
2017-12-15T15:29:45.376Z,2.95
2017-12-15T15:32:12.812Z,1.83
2017-12-15T15:34:40.364Z,1.62
2017-12-15T15:37:07.796Z,2.20
2017-12-15T15:39:35.250Z,2.30
2017-12-15T15:42:02.680Z,1.33
2017-12-15T15:44:30.121Z,1.40
2017-12-15T15:46:57.552Z,1.23
2017-12-15T15:49:25.889Z,2.17
2017-12-15T15:51:53.323Z,1.50
2017-12-15T15:54:20.752Z,2.60
2017-12-15T15:56:48.987Z,1.23
2017-12-15T15:59:16.427Z,1.40
2017-12-15T16:01:43.851Z,2.00
2017-12-15T16:04:11.314Z,0.90
2017-12-15T16:06:38.753Z,1.77
2017-12-15T16:09:06.191Z,1.35
2017-12-15T16:11:33.612Z,1.95
2017-12-15T16:14:01.885Z,1.40
2017-12-15T16:16:29.313Z,1.85
2017-12-15T16:18:56.790Z,2.00
2017-12-15T16:21:25.049Z,2.75
2017-12-15T16:23:52.479Z,1.25
2017-12-15T16:26:21.072Z,7.95
2017-12-15T16:28:48.493Z,1.60
2017-12-15T16:31:15.931Z,1.20
2017-12-15T16:33:43.372Z,1.62
2017-12-15T16:36:10.809Z,1.20
2017-12-15T16:38:38.540Z,1.33
2017-12-15T16:41:06.020Z,1.20
2017-12-15T16:43:33.489Z,1.60
2017-12-15T16:46:01.694Z,2.12
2017-12-15T16:48:29.121Z,1.30
2017-12-15T16:50:56.556Z,1.33
2017-12-15T16:53:23.980Z,1.87
2017-12-15T16:55:52.215Z,1.50
2017-12-15T16:58:19.952Z,2.05
2017-12-15T17:00:47.427Z,2.10
2017-12-15T17:03:15.621Z,2.20
2017-12-15T17:05:43.056Z,2.20
2017-12-15T17:08:10.549Z,1.87
2017-12-15T17:10:37.989Z,1.73
2017-12-15T17:13:05.417Z,2.40
2017-12-15T17:15:32.859Z,2.80
2017-12-15T17:18:00.296Z,3.15
2017-12-15T17:20:27.764Z,2.70
2017-12-15T17:22:55.211Z,2.70
2017-12-15T17:25:22.636Z,2.47
2017-12-15T17:27:50.072Z,2.42
2017-12-15T17:30:17.501Z,2.70
2017-12-15T17:32:45.019Z,3.12
2017-12-15T17:35:13.200Z,2.62
2017-12-15T17:37:40.636Z,3.25
2017-12-15T17:40:08.068Z,2.20
2017-12-15T17:42:35.579Z,3.90
2017-12-15T17:45:03.030Z,2.72
2017-12-15T17:47:30.549Z,3.60
2017-12-15T17:49:58.016Z,3.45
2017-12-15T17:52:26.240Z,3.70
2017-12-15T17:54:53.668Z,3.00
2017-12-15T17:57:21.145Z,2.62
2017-12-15T17:59:48.617Z,2.70
2017-12-15T18:02:16.048Z,2.87
2017-12-15T18:04:43.473Z,2.92
2017-12-15T18:07:11.013Z,2.70
2017-12-15T18:09:38.444Z,3.20
2017-12-15T18:12:05.896Z,2.95
2017-12-15T18:14:33.328Z,3.28
2017-12-15T18:17:00.774Z,3.08
2017-12-15T18:19:28.232Z,3.97
2017-12-15T18:21:55.710Z,4.30
2017-12-15T18:24:23.924Z,3.95
2017-12-15T18:26:51.361Z,2.85
2017-12-15T18:29:18.812Z,3.45
2017-12-15T18:31:46.239Z,3.78
2017-12-15T18:34:13.700Z,4.25
2017-12-15T18:36:41.137Z,3.58
2017-12-15T18:39:08.593Z,3.85
2017-12-15T18:41:36.029Z,4.00
2017-12-15T18:44:03.581Z,3.90
2017-12-15T18:46:31.009Z,3.92
2017-12-15T18:48:58.469Z,4.35
2017-12-15T18:51:25.899Z,4.47
2017-12-15T18:53:53.340Z,4.37
2017-12-15T18:56:20.798Z,4.45
2017-12-15T18:58:48.244Z,5.22
2017-12-15T19:01:15.668Z,5.25
2017-12-15T19:03:43.109Z,5.65
2017-12-15T19:06:10.560Z,6.07
2017-12-15T19:08:38.208Z,6.18
2017-12-15T19:11:05.748Z,6.30
2017-12-15T19:13:33.201Z,8.80
2017-12-15T19:16:10.638Z,9.25
2017-12-15T19:18:38.086Z,8.85
2017-12-15T19:21:05.553Z,7.28
2017-12-15T19:23:33.152Z,6.05
2017-12-15T19:26:00.552Z,5.43
2017-12-15T19:28:28.014Z,6.45
2017-12-15T19:30:55.461Z,5.18
2017-12-15T19:33:23.661Z,5.68
2017-12-15T19:35:51.103Z,4.47
2017-12-15T19:38:18.536Z,5.65
2017-12-15T19:40:45.979Z,6.45
2017-12-15T19:43:13.410Z,5.10
2017-12-15T19:45:40.869Z,5.35
2017-12-15T19:48:08.291Z,6.15
2017-12-15T19:50:35.738Z,6.30
2017-12-15T19:53:03.156Z,5.90
2017-12-15T19:55:30.600Z,5.95
2017-12-15T19:57:58.842Z,7.07
2017-12-15T20:00:26.383Z,6.28
2017-12-15T20:02:53.850Z,6.05
2017-12-15T20:05:22.076Z,6.93
2017-12-15T20:07:49.519Z,6.03
2017-12-15T20:10:16.974Z,6.18
2017-12-15T20:12:44.418Z,7.40
2017-12-15T20:15:11.915Z,6.60
2017-12-15T20:17:39.349Z,7.25
2017-12-15T20:20:06.791Z,8.35
2017-12-15T20:22:34.285Z,9.30
2017-12-15T20:25:01.832Z,8.85
2017-12-15T20:27:29.364Z,10.30
2017-12-15T20:29:56.869Z,11.63
2017-12-15T20:32:24.288Z,8.85
2017-12-15T20:34:52.480Z,7.50
2017-12-15T20:37:19.924Z,6.72
2017-12-15T20:39:47.361Z,7.32
2017-12-15T20:42:14.882Z,9.68
2017-12-15T20:44:43.122Z,10.35
2017-12-15T20:47:10.551Z,8.93
2017-12-15T20:49:38.042Z,9.23
2017-12-15T20:52:05.661Z,9.02
2017-12-15T20:54:33.139Z,8.68
2017-12-15T20:57:00.628Z,8.85
2017-12-15T20:59:28.047Z,13.75
2017-12-15T21:01:55.541Z,13.98
2017-12-15T21:04:23.003Z,11.32
2017-12-15T21:06:50.455Z,15.85
2017-12-15T21:09:18.812Z,11.55
2017-12-15T21:11:46.254Z,10.93
2017-12-15T21:14:13.739Z,8.95
2017-12-15T21:16:42.092Z,8.88
2017-12-15T21:19:09.518Z,8.00
2017-12-15T21:21:36.960Z,7.43
2017-12-15T21:24:04.473Z,7.45
2017-12-15T21:26:32.714Z,6.78
2017-12-15T21:29:00.188Z,6.35
2017-12-15T21:31:28.438Z,6.90
2017-12-15T21:33:56.000Z,6.30
2017-12-15T21:36:23.477Z,8.02
2017-12-15T21:38:50.971Z,8.60
2017-12-15T21:41:19.186Z,9.30
2017-12-15T21:43:46.614Z,10.52
2017-12-15T21:46:14.058Z,8.95
2017-12-15T21:48:41.667Z,8.65
2017-12-15T21:51:09.205Z,7.47
2017-12-15T21:53:37.406Z,9.38
2017-12-15T21:56:04.959Z,8.13
2017-12-15T21:58:32.458Z,8.30
2017-12-15T22:01:00.698Z,7.62
2017-12-15T22:03:28.174Z,8.88
2017-12-15T22:05:56.406Z,8.82
2017-12-15T22:08:23.873Z,7.55
2017-12-15T22:10:52.060Z,7.97
2017-12-15T22:13:19.555Z,8.70
2017-12-15T22:15:46.999Z,8.75
2017-12-15T22:18:15.241Z,7.93
2017-12-15T22:20:42.714Z,8.25
2017-12-15T22:23:10.950Z,8.35
2017-12-15T22:25:38.375Z,7.78
2017-12-15T22:28:06.643Z,7.28
2017-12-15T22:30:34.056Z,7.93
2017-12-15T22:33:01.567Z,8.00
2017-12-15T22:35:29.799Z,6.62
2017-12-15T22:37:57.228Z,7.90
2017-12-15T22:40:24.767Z,7.37
2017-12-15T22:42:52.231Z,7.32
2017-12-15T22:45:19.676Z,6.72
2017-12-15T22:47:47.222Z,7.60
2017-12-15T22:50:14.772Z,7.25
2017-12-15T22:52:42.251Z,8.55
2017-12-15T22:55:09.680Z,8.20
2017-12-15T22:57:37.120Z,7.90
2017-12-15T23:00:05.338Z,8.65
2017-12-15T23:02:32.815Z,8.70
2017-12-15T23:05:00.288Z,7.85
2017-12-15T23:07:27.777Z,7.20
2017-12-15T23:09:55.213Z,8.02
2017-12-15T23:12:22.739Z,8.50
2017-12-15T23:14:50.168Z,6.30
2017-12-15T23:17:17.634Z,5.45
2017-12-15T23:19:45.107Z,6.03
2017-12-15T23:22:12.525Z,6.50
2017-12-15T23:24:39.980Z,5.62
2017-12-15T23:27:07.410Z,5.62
2017-12-15T23:29:34.887Z,4.70
2017-12-15T23:32:02.328Z,5.10
2017-12-15T23:34:30.640Z,4.95
2017-12-15T23:36:58.068Z,4.82
2017-12-15T23:39:25.498Z,4.40
2017-12-15T23:41:52.936Z,4.78
2017-12-15T23:44:20.398Z,6.05
2017-12-15T23:46:47.859Z,5.95
2017-12-15T23:49:15.280Z,17.15
2017-12-15T23:51:42.712Z,7.30
2017-12-15T23:57:01.689Z,7.25
2017-12-15T23:59:29.434Z,6.95
